sensor_id;sensor_type;location;lat;lon;timestamp;P1;durP1;ratioP1;P2;durP2;ratioP2
8397;SDS011;4236;54.504;9.588;2024-02-26T00:01:33;26.70;;;23.00;;
8397;SDS011;4236;54.504;9.588;2024-02-26T00:04:02;38.67;;;24.70;;
8397;SDS011;4236;54.504;9.588;2024-02-26T00:06:31;28.63;;;25.63;;
8397;SDS011;4236;54.504;9.588;2024-02-26T00:08:58;62.73;;;32.07;;
8397;SDS011;4236;54.504;9.588;2024-02-26T00:11:27;25.97;;;24.33;;
8397;SDS011;4236;54.504;9.588;2024-02-26T00:13:55;27.83;;;25.50;;
8397;SDS011;4236;54.504;9.588;2024-02-26T00:16:22;26.10;;;24.33;;
8397;SDS011;4236;54.504;9.588;2024-02-26T00:18:50;27.40;;;24.93;;
8397;SDS011;4236;54.504;9.588;2024-02-26T00:21:20;25.63;;;23.70;;
8397;SDS011;4236;54.504;9.588;2024-02-26T00:23:49;26.17;;;24.17;;
8397;SDS011;4236;54.504;9.588;2024-02-26T00:26:17;25.97;;;24.30;;
8397;SDS011;4236;54.504;9.588;2024-02-26T00:28:44;25.43;;;23.53;;
8397;SDS011;4236;54.504;9.588;2024-02-26T00:31:12;27.37;;;24.67;;
8397;SDS011;4236;54.504;9.588;2024-02-26T00:33:40;35.33;;;26.40;;
8397;SDS011;4236;54.504;9.588;2024-02-26T00:36:08;29.43;;;24.13;;
8397;SDS011;4236;54.504;9.588;2024-02-26T00:38:37;89.70;;;28.30;;
8397;SDS011;4236;54.504;9.588;2024-02-26T00:41:05;61.37;;;28.57;;
8397;SDS011;4236;54.504;9.588;2024-02-26T00:43:33;113.33;;;34.70;;
8397;SDS011;4236;54.504;9.588;2024-02-26T00:46:01;87.53;;;28.27;;
8397;SDS011;4236;54.504;9.588;2024-02-26T00:48:29;26.17;;;23.73;;
8397;SDS011;4236;54.504;9.588;2024-02-26T00:50:57;58.53;;;27.87;;
8397;SDS011;4236;54.504;9.588;2024-02-26T00:53:25;108.07;;;31.70;;
8397;SDS011;4236;54.504;9.588;2024-02-26T00:55:54;149.80;;;36.10;;
8397;SDS011;4236;54.504;9.588;2024-02-26T00:58:22;54.50;;;27.53;;
8397;SDS011;4236;54.504;9.588;2024-02-26T01:00:49;43.37;;;26.00;;
8397;SDS011;4236;54.504;9.588;2024-02-26T01:03:17;97.80;;;27.70;;
8397;SDS011;4236;54.504;9.588;2024-02-26T01:05:45;106.13;;;28.93;;
8397;SDS011;4236;54.504;9.588;2024-02-26T01:08:13;66.80;;;26.10;;
8397;SDS011;4236;54.504;9.588;2024-02-26T01:10:41;114.10;;;33.47;;
8397;SDS011;4236;54.504;9.588;2024-02-26T01:13:10;124.63;;;29.60;;
8397;SDS011;4236;54.504;9.588;2024-02-26T01:15:38;114.53;;;31.43;;
8397;SDS011;4236;54.504;9.588;2024-02-26T01:18:06;46.53;;;25.43;;
8397;SDS011;4236;54.504;9.588;2024-02-26T01:22:59;27.23;;;24.90;;
8397;SDS011;4236;54.504;9.588;2024-02-26T01:25:26;48.90;;;28.33;;
8397;SDS011;4236;54.504;9.588;2024-02-26T01:27:54;31.37;;;26.80;;
8397;SDS011;4236;54.504;9.588;2024-02-26T01:30:24;31.27;;;28.30;;
8397;SDS011;4236;54.504;9.588;2024-02-26T01:32:52;25.70;;;23.87;;
8397;SDS011;4236;54.504;9.588;2024-02-26T01:35:20;23.70;;;22.10;;
8397;SDS011;4236;54.504;9.588;2024-02-26T01:37:48;23.60;;;22.20;;
8397;SDS011;4236;54.504;9.588;2024-02-26T01:40:16;23.57;;;22.13;;
8397;SDS011;4236;54.504;9.588;2024-02-26T01:42:46;23.87;;;22.57;;
8397;SDS011;4236;54.504;9.588;2024-02-26T01:45:15;24.53;;;23.03;;
8397;SDS011;4236;54.504;9.588;2024-02-26T01:47:50;25.53;;;23.77;;
8397;SDS011;4236;54.504;9.588;2024-02-26T01:50:19;23.50;;;22.27;;
8397;SDS011;4236;54.504;9.588;2024-02-26T01:52:49;29.20;;;26.30;;
8397;SDS011;4236;54.504;9.588;2024-02-26T01:55:18;23.70;;;22.40;;
8397;SDS011;4236;54.504;9.588;2024-02-26T01:57:47;25.97;;;24.17;;
8397;SDS011;4236;54.504;9.588;2024-02-26T02:00:18;25.27;;;23.57;;
8397;SDS011;4236;54.504;9.588;2024-02-26T02:02:47;26.40;;;24.40;;
8397;SDS011;4236;54.504;9.588;2024-02-26T02:05:17;26.30;;;24.27;;
8397;SDS011;4236;54.504;9.588;2024-02-26T02:07:44;112.30;;;31.93;;
8397;SDS011;4236;54.504;9.588;2024-02-26T02:10:13;34.70;;;26.47;;
8397;SDS011;4236;54.504;9.588;2024-02-26T02:12:40;34.33;;;25.97;;
8397;SDS011;4236;54.504;9.588;2024-02-26T02:15:09;71.90;;;32.43;;
8397;SDS011;4236;54.504;9.588;2024-02-26T02:17:37;26.67;;;23.70;;
8397;SDS011;4236;54.504;9.588;2024-02-26T02:20:07;36.63;;;27.00;;
8397;SDS011;4236;54.504;9.588;2024-02-26T02:22:37;27.50;;;24.10;;
8397;SDS011;4236;54.504;9.588;2024-02-26T02:25:05;27.90;;;25.10;;
8397;SDS011;4236;54.504;9.588;2024-02-26T02:27:33;25.60;;;23.77;;
8397;SDS011;4236;54.504;9.588;2024-02-26T02:30:01;25.63;;;23.83;;
8397;SDS011;4236;54.504;9.588;2024-02-26T02:32:31;23.77;;;22.10;;
8397;SDS011;4236;54.504;9.588;2024-02-26T02:34:59;25.53;;;23.93;;
8397;SDS011;4236;54.504;9.588;2024-02-26T02:37:26;25.20;;;23.53;;
8397;SDS011;4236;54.504;9.588;2024-02-26T02:39:55;26.77;;;24.77;;
8397;SDS011;4236;54.504;9.588;2024-02-26T02:42:23;26.40;;;24.27;;
8397;SDS011;4236;54.504;9.588;2024-02-26T02:44:51;26.97;;;25.17;;
8397;SDS011;4236;54.504;9.588;2024-02-26T02:47:19;27.03;;;25.13;;
8397;SDS011;4236;54.504;9.588;2024-02-26T02:49:47;31.07;;;28.47;;
8397;SDS011;4236;54.504;9.588;2024-02-26T02:52:15;28.43;;;26.17;;
8397;SDS011;4236;54.504;9.588;2024-02-26T02:54:43;28.70;;;26.43;;
8397;SDS011;4236;54.504;9.588;2024-02-26T02:57:12;26.77;;;24.87;;
8397;SDS011;4236;54.504;9.588;2024-02-26T02:59:40;29.60;;;27.50;;
8397;SDS011;4236;54.504;9.588;2024-02-26T03:02:07;28.73;;;26.63;;
8397;SDS011;4236;54.504;9.588;2024-02-26T03:04:35;27.67;;;25.80;;
8397;SDS011;4236;54.504;9.588;2024-02-26T03:07:03;27.53;;;25.53;;
8397;SDS011;4236;54.504;9.588;2024-02-26T03:09:31;28.43;;;26.63;;
8397;SDS011;4236;54.504;9.588;2024-02-26T03:11:59;27.67;;;25.87;;
8397;SDS011;4236;54.504;9.588;2024-02-26T03:14:28;27.37;;;25.57;;
8397;SDS011;4236;54.504;9.588;2024-02-26T03:16:56;26.50;;;24.70;;
8397;SDS011;4236;54.504;9.588;2024-02-26T03:19:24;25.97;;;24.47;;
8397;SDS011;4236;54.504;9.588;2024-02-26T03:21:52;25.07;;;23.70;;
8397;SDS011;4236;54.504;9.588;2024-02-26T03:24:20;26.10;;;24.47;;
8397;SDS011;4236;54.504;9.588;2024-02-26T03:26:48;27.60;;;25.70;;
8397;SDS011;4236;54.504;9.588;2024-02-26T03:29:17;26.60;;;25.00;;
8397;SDS011;4236;54.504;9.588;2024-02-26T03:31:46;27.70;;;26.00;;
8397;SDS011;4236;54.504;9.588;2024-02-26T03:34:14;26.03;;;24.50;;
8397;SDS011;4236;54.504;9.588;2024-02-26T03:36:43;27.50;;;25.40;;
8397;SDS011;4236;54.504;9.588;2024-02-26T03:39:11;27.50;;;25.70;;
8397;SDS011;4236;54.504;9.588;2024-02-26T03:41:39;26.60;;;24.77;;
8397;SDS011;4236;54.504;9.588;2024-02-26T03:44:07;26.60;;;24.80;;
8397;SDS011;4236;54.504;9.588;2024-02-26T03:46:36;27.53;;;25.53;;
8397;SDS011;4236;54.504;9.588;2024-02-26T03:49:05;27.23;;;25.43;;
8397;SDS011;4236;54.504;9.588;2024-02-26T03:51:33;26.80;;;25.07;;
8397;SDS011;4236;54.504;9.588;2024-02-26T03:54:00;27.43;;;25.57;;
8397;SDS011;4236;54.504;9.588;2024-02-26T03:56:29;28.93;;;26.80;;
8397;SDS011;4236;54.504;9.588;2024-02-26T03:58:56;28.03;;;25.93;;
8397;SDS011;4236;54.504;9.588;2024-02-26T04:01:25;30.00;;;27.60;;
8397;SDS011;4236;54.504;9.588;2024-02-26T04:03:54;31.83;;;29.03;;
8397;SDS011;4236;54.504;9.588;2024-02-26T04:06:23;29.70;;;27.33;;
8397;SDS011;4236;54.504;9.588;2024-02-26T04:08:51;30.23;;;27.53;;
8397;SDS011;4236;54.504;9.588;2024-02-26T04:11:18;30.63;;;28.33;;
8397;SDS011;4236;54.504;9.588;2024-02-26T04:13:46;31.67;;;28.33;;
8397;SDS011;4236;54.504;9.588;2024-02-26T04:16:15;33.57;;;30.33;;
8397;SDS011;4236;54.504;9.588;2024-02-26T04:18:43;34.50;;;30.97;;
8397;SDS011;4236;54.504;9.588;2024-02-26T04:21:11;29.43;;;27.57;;
8397;SDS011;4236;54.504;9.588;2024-02-26T04:23:41;30.03;;;27.30;;
8397;SDS011;4236;54.504;9.588;2024-02-26T04:26:08;30.10;;;27.90;;
8397;SDS011;4236;54.504;9.588;2024-02-26T04:28:36;30.70;;;28.40;;
8397;SDS011;4236;54.504;9.588;2024-02-26T04:31:04;31.10;;;28.63;;
8397;SDS011;4236;54.504;9.588;2024-02-26T04:33:33;33.73;;;31.10;;
8397;SDS011;4236;54.504;9.588;2024-02-26T04:36:02;33.67;;;30.97;;
8397;SDS011;4236;54.504;9.588;2024-02-26T04:38:30;36.37;;;33.07;;
8397;SDS011;4236;54.504;9.588;2024-02-26T04:40:59;36.30;;;33.17;;
8397;SDS011;4236;54.504;9.588;2024-02-26T04:43:27;34.70;;;31.10;;
8397;SDS011;4236;54.504;9.588;2024-02-26T04:45:55;231.43;;;48.73;;
8397;SDS011;4236;54.504;9.588;2024-02-26T04:48:23;410.53;;;66.13;;
8397;SDS011;4236;54.504;9.588;2024-02-26T04:50:51;238.17;;;53.13;;
8397;SDS011;4236;54.504;9.588;2024-02-26T04:53:19;364.30;;;65.03;;
8397;SDS011;4236;54.504;9.588;2024-02-26T04:55:47;93.97;;;37.43;;
8397;SDS011;4236;54.504;9.588;2024-02-26T04:58:16;278.90;;;57.90;;
8397;SDS011;4236;54.504;9.588;2024-02-26T05:00:44;184.13;;;43.93;;
8397;SDS011;4236;54.504;9.588;2024-02-26T05:03:11;137.73;;;38.40;;
8397;SDS011;4236;54.504;9.588;2024-02-26T05:05:42;111.70;;;36.00;;
8397;SDS011;4236;54.504;9.588;2024-02-26T05:08:10;201.73;;;48.70;;
8397;SDS011;4236;54.504;9.588;2024-02-26T05:10:38;165.23;;;42.90;;
8397;SDS011;4236;54.504;9.588;2024-02-26T05:13:07;140.83;;;42.13;;
8397;SDS011;4236;54.504;9.588;2024-02-26T05:15:36;160.93;;;43.43;;
8397;SDS011;4236;54.504;9.588;2024-02-26T05:18:04;126.57;;;37.93;;
8397;SDS011;4236;54.504;9.588;2024-02-26T05:20:34;328.03;;;59.13;;
8397;SDS011;4236;54.504;9.588;2024-02-26T05:23:04;159.87;;;42.33;;
8397;SDS011;4236;54.504;9.588;2024-02-26T05:25:31;153.87;;;42.43;;
8397;SDS011;4236;54.504;9.588;2024-02-26T05:27:59;151.93;;;46.53;;
8397;SDS011;4236;54.504;9.588;2024-02-26T05:30:27;95.30;;;36.53;;
8397;SDS011;4236;54.504;9.588;2024-02-26T05:32:57;114.37;;;37.73;;
8397;SDS011;4236;54.504;9.588;2024-02-26T05:35:25;101.93;;;34.53;;
8397;SDS011;4236;54.504;9.588;2024-02-26T05:37:53;249.67;;;55.73;;
8397;SDS011;4236;54.504;9.588;2024-02-26T05:40:21;206.70;;;46.97;;
8397;SDS011;4236;54.504;9.588;2024-02-26T05:42:48;121.87;;;40.00;;
8397;SDS011;4236;54.504;9.588;2024-02-26T05:45:16;300.77;;;53.00;;
8397;SDS011;4236;54.504;9.588;2024-02-26T05:47:44;97.40;;;36.30;;
8397;SDS011;4236;54.504;9.588;2024-02-26T05:50:13;162.57;;;47.17;;
8397;SDS011;4236;54.504;9.588;2024-02-26T05:52:42;233.43;;;47.73;;
8397;SDS011;4236;54.504;9.588;2024-02-26T05:55:10;144.67;;;40.80;;
8397;SDS011;4236;54.504;9.588;2024-02-26T05:57:39;143.97;;;39.10;;
8397;SDS011;4236;54.504;9.588;2024-02-26T06:00:07;178.77;;;44.90;;
8397;SDS011;4236;54.504;9.588;2024-02-26T06:02:39;270.30;;;49.93;;
8397;SDS011;4236;54.504;9.588;2024-02-26T06:05:07;184.60;;;44.97;;
8397;SDS011;4236;54.504;9.588;2024-02-26T06:07:37;277.03;;;52.50;;
8397;SDS011;4236;54.504;9.588;2024-02-26T06:10:05;273.13;;;54.13;;
8397;SDS011;4236;54.504;9.588;2024-02-26T06:12:34;185.03;;;50.60;;
8397;SDS011;4236;54.504;9.588;2024-02-26T06:15:03;319.63;;;56.83;;
8397;SDS011;4236;54.504;9.588;2024-02-26T06:17:31;373.63;;;65.23;;
8397;SDS011;4236;54.504;9.588;2024-02-26T06:20:00;250.13;;;54.53;;
8397;SDS011;4236;54.504;9.588;2024-02-26T06:22:29;224.90;;;48.23;;
8397;SDS011;4236;54.504;9.588;2024-02-26T06:24:59;388.17;;;71.87;;
8397;SDS011;4236;54.504;9.588;2024-02-26T06:27:26;279.03;;;57.33;;
8397;SDS011;4236;54.504;9.588;2024-02-26T06:29:54;313.63;;;54.90;;
8397;SDS011;4236;54.504;9.588;2024-02-26T06:32:23;258.07;;;53.67;;
8397;SDS011;4236;54.504;9.588;2024-02-26T06:34:53;234.77;;;55.03;;
8397;SDS011;4236;54.504;9.588;2024-02-26T06:37:21;165.17;;;44.40;;
8397;SDS011;4236;54.504;9.588;2024-02-26T06:39:49;143.00;;;43.90;;
8397;SDS011;4236;54.504;9.588;2024-02-26T06:42:19;100.57;;;41.20;;
8397;SDS011;4236;54.504;9.588;2024-02-26T06:44:47;135.13;;;44.70;;
8397;SDS011;4236;54.504;9.588;2024-02-26T06:47:15;122.17;;;43.43;;
8397;SDS011;4236;54.504;9.588;2024-02-26T06:49:42;212.97;;;56.17;;
8397;SDS011;4236;54.504;9.588;2024-02-26T06:52:10;200.83;;;52.10;;
8397;SDS011;4236;54.504;9.588;2024-02-26T06:54:38;132.90;;;46.90;;
8397;SDS011;4236;54.504;9.588;2024-02-26T06:57:06;75.30;;;41.00;;
8397;SDS011;4236;54.504;9.588;2024-02-26T06:59:35;58.80;;;40.00;;
8397;SDS011;4236;54.504;9.588;2024-02-26T07:02:03;77.70;;;43.60;;
8397;SDS011;4236;54.504;9.588;2024-02-26T07:04:31;48.17;;;40.63;;
8397;SDS011;4236;54.504;9.588;2024-02-26T07:07:00;47.17;;;37.17;;
8397;SDS011;4236;54.504;9.588;2024-02-26T07:09:28;47.67;;;38.93;;
8397;SDS011;4236;54.504;9.588;2024-02-26T07:11:56;52.13;;;36.50;;
8397;SDS011;4236;54.504;9.588;2024-02-26T07:14:27;41.67;;;36.07;;
8397;SDS011;4236;54.504;9.588;2024-02-26T07:16:56;47.60;;;36.97;;
8397;SDS011;4236;54.504;9.588;2024-02-26T07:19:24;47.20;;;36.60;;
8397;SDS011;4236;54.504;9.588;2024-02-26T07:21:52;46.03;;;37.27;;
8397;SDS011;4236;54.504;9.588;2024-02-26T07:24:22;45.33;;;36.77;;
8397;SDS011;4236;54.504;9.588;2024-02-26T07:26:50;43.67;;;36.23;;
8397;SDS011;4236;54.504;9.588;2024-02-26T07:29:18;41.90;;;37.47;;
8397;SDS011;4236;54.504;9.588;2024-02-26T07:31:45;41.10;;;36.20;;
8397;SDS011;4236;54.504;9.588;2024-02-26T07:34:14;43.10;;;37.40;;
8397;SDS011;4236;54.504;9.588;2024-02-26T07:36:42;43.23;;;38.70;;
8397;SDS011;4236;54.504;9.588;2024-02-26T07:39:10;52.03;;;41.03;;
8397;SDS011;4236;54.504;9.588;2024-02-26T07:41:38;43.80;;;35.33;;
8397;SDS011;4236;54.504;9.588;2024-02-26T07:44:06;57.37;;;41.47;;
8397;SDS011;4236;54.504;9.588;2024-02-26T07:46:35;41.73;;;36.10;;
8397;SDS011;4236;54.504;9.588;2024-02-26T07:49:03;46.77;;;36.53;;
8397;SDS011;4236;54.504;9.588;2024-02-26T07:51:33;43.93;;;35.27;;
8397;SDS011;4236;54.504;9.588;2024-02-26T07:54:01;35.33;;;31.93;;
8397;SDS011;4236;54.504;9.588;2024-02-26T07:56:29;36.20;;;32.43;;
8397;SDS011;4236;54.504;9.588;2024-02-26T07:58:57;48.43;;;37.40;;
8397;SDS011;4236;54.504;9.588;2024-02-26T08:01:25;39.73;;;35.37;;
8397;SDS011;4236;54.504;9.588;2024-02-26T08:03:53;45.60;;;37.10;;
8397;SDS011;4236;54.504;9.588;2024-02-26T08:06:22;40.40;;;36.20;;
8397;SDS011;4236;54.504;9.588;2024-02-26T08:08:52;39.43;;;36.03;;
8397;SDS011;4236;54.504;9.588;2024-02-26T08:11:22;45.07;;;38.33;;
8397;SDS011;4236;54.504;9.588;2024-02-26T08:13:50;35.87;;;32.87;;
8397;SDS011;4236;54.504;9.588;2024-02-26T08:16:18;37.20;;;34.00;;
8397;SDS011;4236;54.504;9.588;2024-02-26T08:18:46;37.27;;;34.27;;
8397;SDS011;4236;54.504;9.588;2024-02-26T08:21:14;36.20;;;33.10;;
8397;SDS011;4236;54.504;9.588;2024-02-26T08:23:42;38.83;;;35.33;;
8397;SDS011;4236;54.504;9.588;2024-02-26T08:26:12;36.73;;;33.50;;
8397;SDS011;4236;54.504;9.588;2024-02-26T08:28:40;34.90;;;32.07;;
8397;SDS011;4236;54.504;9.588;2024-02-26T08:31:07;35.40;;;32.60;;
8397;SDS011;4236;54.504;9.588;2024-02-26T08:33:35;36.27;;;33.37;;
8397;SDS011;4236;54.504;9.588;2024-02-26T08:36:04;36.07;;;33.27;;
8397;SDS011;4236;54.504;9.588;2024-02-26T08:38:32;36.43;;;33.47;;
8397;SDS011;4236;54.504;9.588;2024-02-26T08:41:01;37.17;;;34.17;;
8397;SDS011;4236;54.504;9.588;2024-02-26T08:43:30;40.10;;;37.10;;
8397;SDS011;4236;54.504;9.588;2024-02-26T08:45:58;39.93;;;36.83;;
8397;SDS011;4236;54.504;9.588;2024-02-26T08:48:25;40.27;;;37.20;;
8397;SDS011;4236;54.504;9.588;2024-02-26T08:50:53;39.10;;;35.90;;
8397;SDS011;4236;54.504;9.588;2024-02-26T08:53:21;39.23;;;36.27;;
8397;SDS011;4236;54.504;9.588;2024-02-26T08:56:00;38.13;;;35.37;;
8397;SDS011;4236;54.504;9.588;2024-02-26T08:58:29;36.67;;;34.10;;
8397;SDS011;4236;54.504;9.588;2024-02-26T09:00:57;36.03;;;33.43;;
8397;SDS011;4236;54.504;9.588;2024-02-26T09:03:25;37.50;;;34.77;;
8397;SDS011;4236;54.504;9.588;2024-02-26T09:05:52;44.43;;;40.93;;
8397;SDS011;4236;54.504;9.588;2024-02-26T09:08:20;37.70;;;34.80;;
8397;SDS011;4236;54.504;9.588;2024-02-26T09:10:49;36.87;;;34.30;;
8397;SDS011;4236;54.504;9.588;2024-02-26T09:13:17;33.50;;;31.20;;
8397;SDS011;4236;54.504;9.588;2024-02-26T09:15:46;33.10;;;30.60;;
8397;SDS011;4236;54.504;9.588;2024-02-26T09:18:14;35.13;;;31.90;;
8397;SDS011;4236;54.504;9.588;2024-02-26T09:20:42;36.23;;;33.40;;
8397;SDS011;4236;54.504;9.588;2024-02-26T09:23:11;35.67;;;33.00;;
8397;SDS011;4236;54.504;9.588;2024-02-26T09:25:38;33.57;;;31.03;;
8397;SDS011;4236;54.504;9.588;2024-02-26T09:28:06;32.37;;;29.87;;
8397;SDS011;4236;54.504;9.588;2024-02-26T09:30:34;31.77;;;29.17;;
8397;SDS011;4236;54.504;9.588;2024-02-26T09:33:04;32.40;;;29.90;;
8397;SDS011;4236;54.504;9.588;2024-02-26T09:35:32;32.53;;;29.83;;
8397;SDS011;4236;54.504;9.588;2024-02-26T09:38:00;33.60;;;31.00;;
8397;SDS011;4236;54.504;9.588;2024-02-26T09:40:27;31.47;;;29.00;;
8397;SDS011;4236;54.504;9.588;2024-02-26T09:42:56;31.60;;;29.10;;
8397;SDS011;4236;54.504;9.588;2024-02-26T09:45:27;31.70;;;29.10;;
8397;SDS011;4236;54.504;9.588;2024-02-26T09:47:56;30.43;;;28.10;;
8397;SDS011;4236;54.504;9.588;2024-02-26T09:50:26;32.37;;;29.90;;
8397;SDS011;4236;54.504;9.588;2024-02-26T09:52:53;30.57;;;28.33;;
8397;SDS011;4236;54.504;9.588;2024-02-26T09:55:23;30.80;;;28.00;;
8397;SDS011;4236;54.504;9.588;2024-02-26T09:57:51;31.87;;;29.37;;
8397;SDS011;4236;54.504;9.588;2024-02-26T10:00:20;29.60;;;27.17;;
8397;SDS011;4236;54.504;9.588;2024-02-26T10:02:49;31.23;;;28.63;;
8397;SDS011;4236;54.504;9.588;2024-02-26T10:05:18;29.53;;;27.27;;
8397;SDS011;4236;54.504;9.588;2024-02-26T10:07:48;29.37;;;27.10;;
8397;SDS011;4236;54.504;9.588;2024-02-26T10:10:16;32.50;;;29.80;;
8397;SDS011;4236;54.504;9.588;2024-02-26T10:12:45;31.20;;;28.63;;
8397;SDS011;4236;54.504;9.588;2024-02-26T10:15:12;30.00;;;27.80;;
8397;SDS011;4236;54.504;9.588;2024-02-26T10:17:40;30.50;;;28.30;;
8397;SDS011;4236;54.504;9.588;2024-02-26T10:20:12;31.00;;;28.30;;
8397;SDS011;4236;54.504;9.588;2024-02-26T10:22:42;29.23;;;26.93;;
8397;SDS011;4236;54.504;9.588;2024-02-26T10:25:12;30.50;;;28.40;;
8397;SDS011;4236;54.504;9.588;2024-02-26T10:27:40;31.00;;;28.60;;
8397;SDS011;4236;54.504;9.588;2024-02-26T10:30:15;31.50;;;28.93;;
8397;SDS011;4236;54.504;9.588;2024-02-26T10:32:45;31.43;;;29.03;;
8397;SDS011;4236;54.504;9.588;2024-02-26T10:35:14;31.03;;;28.80;;
8397;SDS011;4236;54.504;9.588;2024-02-26T10:37:42;29.77;;;27.70;;
8397;SDS011;4236;54.504;9.588;2024-02-26T10:40:11;30.30;;;28.00;;
8397;SDS011;4236;54.504;9.588;2024-02-26T10:42:40;29.20;;;27.20;;
8397;SDS011;4236;54.504;9.588;2024-02-26T10:45:09;32.47;;;29.90;;
8397;SDS011;4236;54.504;9.588;2024-02-26T10:47:37;31.97;;;29.40;;
8397;SDS011;4236;54.504;9.588;2024-02-26T10:50:06;30.67;;;28.43;;
8397;SDS011;4236;54.504;9.588;2024-02-26T10:52:34;31.20;;;28.90;;
8397;SDS011;4236;54.504;9.588;2024-02-26T10:55:04;31.70;;;29.07;;
8397;SDS011;4236;54.504;9.588;2024-02-26T10:57:35;31.20;;;29.00;;
8397;SDS011;4236;54.504;9.588;2024-02-26T11:00:09;31.30;;;28.90;;
8397;SDS011;4236;54.504;9.588;2024-02-26T11:02:39;32.53;;;29.93;;
8397;SDS011;4236;54.504;9.588;2024-02-26T11:05:08;34.20;;;31.37;;
8397;SDS011;4236;54.504;9.588;2024-02-26T11:07:38;31.73;;;29.30;;
8397;SDS011;4236;54.504;9.588;2024-02-26T11:10:07;32.60;;;30.10;;
8397;SDS011;4236;54.504;9.588;2024-02-26T11:12:40;31.30;;;29.00;;
8397;SDS011;4236;54.504;9.588;2024-02-26T11:15:09;32.77;;;30.03;;
8397;SDS011;4236;54.504;9.588;2024-02-26T11:17:37;32.50;;;29.90;;
8397;SDS011;4236;54.504;9.588;2024-02-26T11:20:09;32.60;;;30.10;;
8397;SDS011;4236;54.504;9.588;2024-02-26T11:22:40;32.13;;;29.63;;
8397;SDS011;4236;54.504;9.588;2024-02-26T11:25:07;27.83;;;25.70;;
8397;SDS011;4236;54.504;9.588;2024-02-26T11:27:38;28.20;;;25.80;;
8397;SDS011;4236;54.504;9.588;2024-02-26T11:30:10;27.30;;;25.30;;
8397;SDS011;4236;54.504;9.588;2024-02-26T11:32:40;27.57;;;25.67;;
8397;SDS011;4236;54.504;9.588;2024-02-26T11:35:11;28.00;;;25.90;;
8397;SDS011;4236;54.504;9.588;2024-02-26T11:37:41;28.73;;;26.53;;
8397;SDS011;4236;54.504;9.588;2024-02-26T11:40:19;25.90;;;24.10;;
8397;SDS011;4236;54.504;9.588;2024-02-26T11:42:48;24.77;;;23.00;;
8397;SDS011;4236;54.504;9.588;2024-02-26T11:48:22;26.90;;;24.83;;
8397;SDS011;4236;54.504;9.588;2024-02-26T11:50:52;25.20;;;23.17;;
8397;SDS011;4236;54.504;9.588;2024-02-26T11:53:21;25.20;;;23.37;;
8397;SDS011;4236;54.504;9.588;2024-02-26T11:56:12;25.70;;;23.70;;
8397;SDS011;4236;54.504;9.588;2024-02-26T11:58:42;25.53;;;23.53;;
8397;SDS011;4236;54.504;9.588;2024-02-26T12:04:07;24.47;;;22.67;;
8397;SDS011;4236;54.504;9.588;2024-02-26T12:06:45;22.60;;;21.20;;
8397;SDS011;4236;54.504;9.588;2024-02-26T12:09:30;23.03;;;21.63;;
8397;SDS011;4236;54.504;9.588;2024-02-26T12:11:59;23.97;;;22.37;;
8397;SDS011;4236;54.504;9.588;2024-02-26T12:14:32;24.53;;;22.83;;
8397;SDS011;4236;54.504;9.588;2024-02-26T12:17:00;24.43;;;22.70;;
8397;SDS011;4236;54.504;9.588;2024-02-26T12:19:28;24.87;;;23.27;;
8397;SDS011;4236;54.504;9.588;2024-02-26T12:21:58;26.00;;;24.10;;
8397;SDS011;4236;54.504;9.588;2024-02-26T12:24:25;27.10;;;25.10;;
8397;SDS011;4236;54.504;9.588;2024-02-26T12:26:53;24.97;;;23.27;;
8397;SDS011;4236;54.504;9.588;2024-02-26T12:29:21;25.83;;;24.03;;
8397;SDS011;4236;54.504;9.588;2024-02-26T12:31:50;26.20;;;24.20;;
8397;SDS011;4236;54.504;9.588;2024-02-26T12:34:18;26.50;;;24.73;;
8397;SDS011;4236;54.504;9.588;2024-02-26T12:36:46;28.20;;;26.20;;
8397;SDS011;4236;54.504;9.588;2024-02-26T12:39:14;27.63;;;25.93;;
8397;SDS011;4236;54.504;9.588;2024-02-26T12:41:42;29.23;;;27.03;;
8397;SDS011;4236;54.504;9.588;2024-02-26T12:44:15;27.67;;;25.87;;
8397;SDS011;4236;54.504;9.588;2024-02-26T12:46:43;27.17;;;25.17;;
8397;SDS011;4236;54.504;9.588;2024-02-26T12:49:14;28.63;;;26.70;;
8397;SDS011;4236;54.504;9.588;2024-02-26T12:51:43;27.90;;;25.90;;
8397;SDS011;4236;54.504;9.588;2024-02-26T12:54:11;28.97;;;26.87;;
8397;SDS011;4236;54.504;9.588;2024-02-26T12:56:40;27.00;;;25.20;;
8397;SDS011;4236;54.504;9.588;2024-02-26T12:59:08;27.10;;;25.10;;
8397;SDS011;4236;54.504;9.588;2024-02-26T13:01:36;25.80;;;23.90;;
8397;SDS011;4236;54.504;9.588;2024-02-26T13:04:04;26.53;;;24.93;;
8397;SDS011;4236;54.504;9.588;2024-02-26T13:06:34;27.97;;;25.73;;
8397;SDS011;4236;54.504;9.588;2024-02-26T13:09:02;26.90;;;25.00;;
8397;SDS011;4236;54.504;9.588;2024-02-26T13:11:30;26.13;;;24.23;;
8397;SDS011;4236;54.504;9.588;2024-02-26T13:13:59;27.33;;;25.13;;
8397;SDS011;4236;54.504;9.588;2024-02-26T13:16:28;25.70;;;24.00;;
8397;SDS011;4236;54.504;9.588;2024-02-26T13:18:56;25.20;;;23.33;;
8397;SDS011;4236;54.504;9.588;2024-02-26T13:21:24;25.00;;;23.40;;
8397;SDS011;4236;54.504;9.588;2024-02-26T13:23:54;23.43;;;21.77;;
8397;SDS011;4236;54.504;9.588;2024-02-26T13:26:22;24.97;;;23.27;;
8397;SDS011;4236;54.504;9.588;2024-02-26T13:29:00;24.97;;;23.40;;
8397;SDS011;4236;54.504;9.588;2024-02-26T13:31:29;23.97;;;22.53;;
8397;SDS011;4236;54.504;9.588;2024-02-26T13:33:57;24.43;;;22.63;;
8397;SDS011;4236;54.504;9.588;2024-02-26T13:36:25;24.97;;;23.40;;
8397;SDS011;4236;54.504;9.588;2024-02-26T13:38:55;25.90;;;24.10;;
8397;SDS011;4236;54.504;9.588;2024-02-26T13:41:23;25.33;;;23.53;;
8397;SDS011;4236;54.504;9.588;2024-02-26T13:43:51;26.07;;;23.93;;
8397;SDS011;4236;54.504;9.588;2024-02-26T13:46:18;25.60;;;23.40;;
8397;SDS011;4236;54.504;9.588;2024-02-26T13:48:46;22.80;;;21.20;;
8397;SDS011;4236;54.504;9.588;2024-02-26T13:51:15;24.33;;;22.60;;
8397;SDS011;4236;54.504;9.588;2024-02-26T13:53:43;26.00;;;24.00;;
8397;SDS011;4236;54.504;9.588;2024-02-26T13:56:12;25.37;;;23.47;;
8397;SDS011;4236;54.504;9.588;2024-02-26T13:58:40;26.23;;;24.43;;
8397;SDS011;4236;54.504;9.588;2024-02-26T14:01:08;25.37;;;23.63;;
8397;SDS011;4236;54.504;9.588;2024-02-26T14:03:36;25.80;;;23.80;;
8397;SDS011;4236;54.504;9.588;2024-02-26T14:06:04;25.93;;;24.03;;
8397;SDS011;4236;54.504;9.588;2024-02-26T14:08:32;24.23;;;22.50;;
8397;SDS011;4236;54.504;9.588;2024-02-26T14:11:00;25.70;;;23.90;;
8397;SDS011;4236;54.504;9.588;2024-02-26T14:13:29;25.50;;;23.40;;
8397;SDS011;4236;54.504;9.588;2024-02-26T14:15:59;25.07;;;23.33;;
8397;SDS011;4236;54.504;9.588;2024-02-26T14:18:28;24.10;;;22.67;;
8397;SDS011;4236;54.504;9.588;2024-02-26T14:20:56;25.37;;;23.57;;
8397;SDS011;4236;54.504;9.588;2024-02-26T14:23:24;27.00;;;25.10;;
8397;SDS011;4236;54.504;9.588;2024-02-26T14:25:52;24.50;;;22.80;;
8397;SDS011;4236;54.504;9.588;2024-02-26T14:28:19;24.97;;;23.27;;
8397;SDS011;4236;54.504;9.588;2024-02-26T14:30:58;25.17;;;23.30;;
8397;SDS011;4236;54.504;9.588;2024-02-26T14:33:26;24.77;;;23.07;;
8397;SDS011;4236;54.504;9.588;2024-02-26T14:35:54;25.70;;;23.90;;
8397;SDS011;4236;54.504;9.588;2024-02-26T14:38:22;26.33;;;24.47;;
8397;SDS011;4236;54.504;9.588;2024-02-26T14:40:50;26.00;;;24.10;;
8397;SDS011;4236;54.504;9.588;2024-02-26T14:43:18;25.23;;;23.43;;
8397;SDS011;4236;54.504;9.588;2024-02-26T14:45:45;27.27;;;25.20;;
8397;SDS011;4236;54.504;9.588;2024-02-26T14:48:14;26.23;;;24.53;;
8397;SDS011;4236;54.504;9.588;2024-02-26T14:50:43;25.17;;;23.60;;
8397;SDS011;4236;54.504;9.588;2024-02-26T14:53:10;25.40;;;23.70;;
8397;SDS011;4236;54.504;9.588;2024-02-26T14:55:38;24.50;;;22.67;;
8397;SDS011;4236;54.504;9.588;2024-02-26T14:58:07;25.37;;;23.67;;
8397;SDS011;4236;54.504;9.588;2024-02-26T15:00:37;25.23;;;23.30;;
8397;SDS011;4236;54.504;9.588;2024-02-26T15:03:05;26.03;;;24.17;;